Time;durP1;ratioP1;P1;durP2;ratioP2;P2;SDS_P1;SDS_P2;PMS_P1;PMS_P2;Temp;Humidity;BMP_temperature;BMP_pressure;BME280_temperature;BME280_humidity;BME280_pressure;Samples;Min_cycle;Max_cycle;Signal;HPM_P1;HPM_P2
2022/07/16 00:02:38;;;;;;;0.70;0.60;;;11.50;99.90;;;;;;4988749;28;20449;-78
2022/07/16 00:05:05;;;;;;;0.50;0.50;;;11.40;99.90;;;;;;4970032;28;20532;-78
2022/07/16 00:07:38;;;;;;;0.60;0.60;;;11.40;99.90;;;;;;4990374;28;20883;-78
2022/07/16 00:10:06;;;;;;;0.68;0.68;;;11.30;99.90;;;;;;4990385;28;20431;-78
2022/07/16 00:12:32;;;;;;;0.70;0.70;;;11.30;99.90;;;;;;4975962;28;20434;-78
2022/07/16 00:14:59;;;;;;;0.75;0.75;;;11.20;99.90;;;;;;4973646;28;20723;-78
2022/07/16 00:17:26;;;;;;;0.88;0.88;;;11.20;99.90;;;;;;4971799;28;20516;-78
2022/07/16 00:19:53;;;;;;;0.70;0.70;;;11.10;99.90;;;;;;4980210;28;20438;-78
2022/07/16 00:22:22;;;;;;;0.82;0.82;;;11.00;99.90;;;;;;4991761;28;20536;-77
2022/07/16 00:24:49;;;;;;;0.80;0.80;;;11.00;99.90;;;;;;4991408;28;20442;-77
2022/07/16 00:27:15;;;;;;;0.70;0.70;;;11.10;99.90;;;;;;4977297;28;20843;-78
2022/07/16 00:29:42;;;;;;;1.80;0.70;;;11.10;99.90;;;;;;4990209;28;20434;-78
2022/07/16 00:32:15;;;;;;;0.80;0.80;;;11.10;99.90;;;;;;4978670;28;20444;-77
2022/07/16 00:34:42;;;;;;;0.70;0.70;;;11.00;99.90;;;;;;4981083;28;20774;-77
2022/07/16 00:37:09;;;;;;;0.80;0.80;;;10.90;99.90;;;;;;4979208;28;20438;-78
2022/07/16 00:39:36;;;;;;;0.70;0.70;;;10.90;99.90;;;;;;4982418;28;20513;-78
2022/07/16 00:42:07;;;;;;;0.80;0.80;;;10.70;99.90;;;;;;4989717;28;20434;-78
2022/07/16 00:44:33;;;;;;;0.40;0.40;;;10.60;99.90;;;;;;4969521;28;20644;-78
2022/07/16 00:47:00;;;;;;;0.60;0.60;;;10.40;99.90;;;;;;4975537;28;20440;-77
2022/07/16 00:49:27;;;;;;;1.98;0.65;;;10.40;99.90;;;;;;4975491;28;20656;-78
2022/07/16 00:51:54;;;;;;;0.73;0.73;;;10.30;99.90;;;;;;4988254;28;20438;-78
2022/07/16 00:54:21;;;;;;;0.90;0.90;;;10.20;99.90;;;;;;4983810;28;20591;-78
2022/07/16 00:56:48;;;;;;;0.65;0.65;;;10.10;99.90;;;;;;4987558;28;20532;-78
2022/07/16 00:59:15;;;;;;;0.60;0.60;;;10.00;99.90;;;;;;4979795;28;20715;-78
2022/07/16 01:01:45;;;;;;;0.77;0.77;;;10.00;99.90;;;;;;4971327;28;20873;-78
2022/07/16 01:04:14;;;;;;;0.90;0.90;;;10.00;99.90;;;;;;4985159;28;20449;-78
2022/07/16 01:06:41;;;;;;;0.80;0.80;;;9.90;99.90;;;;;;4982531;28;20456;-77
2022/07/16 01:09:09;;;;;;;0.57;0.57;;;9.80;99.90;;;;;;4976953;28;20437;-78
2022/07/16 01:11:36;;;;;;;0.85;0.85;;;9.70;99.90;;;;;;4979355;28;20946;-78
2022/07/16 01:14:05;;;;;;;0.77;0.77;;;9.60;99.90;;;;;;4988232;28;20441;-78
2022/07/16 01:16:32;;;;;;;0.80;0.80;;;9.50;99.90;;;;;;4986671;28;20434;-78
2022/07/16 01:18:58;;;;;;;1.10;0.70;;;9.60;99.90;;;;;;4987718;28;20983;-78
2022/07/16 01:21:26;;;;;;;0.52;0.52;;;9.60;99.90;;;;;;4985147;28;20438;-78
2022/07/16 01:23:53;;;;;;;1.13;0.68;;;9.60;99.90;;;;;;4979351;28;20513;-78
2022/07/16 01:26:20;;;;;;;0.60;0.60;;;9.60;99.90;;;;;;4986201;28;20448;-78
2022/07/16 01:28:47;;;;;;;0.60;0.60;;;9.50;99.90;;;;;;4968719;28;20442;-78
2022/07/16 01:31:14;;;;;;;0.68;0.68;;;9.50;99.90;;;;;;4972421;28;20525;-78
2022/07/16 01:33:42;;;;;;;0.82;0.82;;;9.50;99.90;;;;;;4984319;28;20434;-78
2022/07/16 01:36:13;;;;;;;0.68;0.68;;;9.50;99.90;;;;;;4991400;28;20489;-78
2022/07/16 01:38:45;;;;;;;0.90;0.90;;;9.40;99.90;;;;;;4986052;28;20437;-78
2022/07/16 01:41:13;;;;;;;0.52;0.52;;;9.40;99.90;;;;;;4974490;28;20446;-78
2022/07/16 01:43:40;;;;;;;0.60;0.60;;;9.50;99.90;;;;;;4984294;28;20465;-77
2022/07/16 01:46:07;;;;;;;0.90;0.90;;;9.50;99.90;;;;;;4987566;28;20983;-77
2022/07/16 01:48:34;;;;;;;0.82;0.82;;;9.50;99.90;;;;;;4969008;28;20445;-77
2022/07/16 01:51:01;;;;;;;0.73;0.73;;;9.50;99.90;;;;;;4988772;28;20787;-77
2022/07/16 01:53:29;;;;;;;0.70;0.70;;;9.50;99.90;;;;;;4986861;28;20446;-77
2022/07/16 01:55:58;;;;;;;0.60;0.60;;;9.50;99.90;;;;;;4986635;28;20430;-77
2022/07/16 01:58:25;;;;;;;0.73;0.73;;;9.50;99.90;;;;;;4990307;28;20525;-77
2022/07/16 02:00:53;;;;;;;0.80;0.80;;;9.50;99.90;;;;;;4998878;28;20488;-77
2022/07/16 02:03:20;;;;;;;0.70;0.65;;;9.50;99.90;;;;;;4987613;28;20521;-78
2022/07/16 02:05:47;;;;;;;0.88;0.88;;;9.50;99.90;;;;;;4970106;28;20442;-78
2022/07/16 02:08:14;;;;;;;0.60;0.60;;;9.50;99.90;;;;;;4981552;28;20585;-78
2022/07/16 02:10:41;;;;;;;0.70;0.70;;;9.50;99.90;;;;;;4983164;28;20447;-78
2022/07/16 02:13:11;;;;;;;0.82;0.82;;;9.50;99.90;;;;;;4969621;28;20481;-78
2022/07/16 02:15:38;;;;;;;0.80;0.80;;;9.40;99.90;;;;;;4977527;28;20438;-78
2022/07/16 02:18:05;;;;;;;0.80;0.80;;;9.40;99.90;;;;;;4983293;28;21052;-77
2022/07/16 02:20:32;;;;;;;0.75;0.75;;;9.30;99.90;;;;;;4988499;28;20545;-78
2022/07/16 02:23:00;;;;;;;0.82;0.82;;;9.20;99.90;;;;;;4977991;28;20939;-78
2022/07/16 02:25:28;;;;;;;0.95;0.95;;;9.00;99.90;;;;;;4985833;28;21041;-78
2022/07/16 02:28:07;;;;;;;0.90;0.90;;;9.00;99.90;;;;;;4986417;28;20772;-78
2022/07/16 02:30:35;;;;;;;0.82;0.82;;;8.90;99.90;;;;;;4979663;28;20516;-78
2022/07/16 02:33:05;;;;;;;0.70;0.60;;;8.90;99.90;;;;;;4968937;28;20448;-78
2022/07/16 02:35:33;;;;;;;1.10;0.90;;;8.90;99.90;;;;;;4986843;28;20813;-78
2022/07/16 02:38:00;;;;;;;0.77;0.70;;;8.90;99.90;;;;;;4969393;28;20446;-78
2022/07/16 02:40:28;;;;;;;0.63;0.63;;;8.90;99.90;;;;;;4980988;28;20503;-78
2022/07/16 02:42:57;;;;;;;0.70;0.70;;;8.90;99.90;;;;;;4986257;28;20952;-78
2022/07/16 02:45:23;;;;;;;1.77;0.98;;;8.90;99.90;;;;;;4982630;28;20437;-77
2022/07/16 02:47:50;;;;;;;0.70;0.70;;;8.90;99.90;;;;;;4987214;28;20464;-78
2022/07/16 02:50:17;;;;;;;0.90;0.90;;;8.90;99.90;;;;;;4983824;28;20441;-78
2022/07/16 02:52:44;;;;;;;0.90;0.90;;;9.00;99.90;;;;;;4978074;28;20441;-77
2022/07/16 02:55:11;;;;;;;0.97;0.97;;;9.10;99.90;;;;;;4965785;28;20612;-78
2022/07/16 02:57:38;;;;;;;0.80;0.80;;;9.20;99.90;;;;;;4983271;28;20929;-77
2022/07/16 03:00:11;;;;;;;0.80;0.80;;;9.20;99.90;;;;;;4988740;28;20459;-78
2022/07/16 03:02:38;;;;;;;0.70;0.70;;;9.20;99.90;;;;;;4975702;28;20470;-77
2022/07/16 03:05:07;;;;;;;0.60;0.60;;;9.10;99.90;;;;;;4993095;28;20854;-77
2022/07/16 03:07:34;;;;;;;0.77;0.77;;;9.00;99.90;;;;;;4992631;28;20521;-77
2022/07/16 03:10:06;;;;;;;0.85;0.80;;;8.90;99.90;;;;;;4968228;28;21001;-77
2022/07/16 03:12:36;;;;;;;0.68;0.68;;;8.90;99.90;;;;;;4990528;28;20469;-77
2022/07/16 03:15:03;;;;;;;0.65;0.65;;;8.80;99.90;;;;;;4974489;28;20435;-78
2022/07/16 03:17:33;;;;;;;0.70;0.70;;;8.80;99.90;;;;;;4993485;28;20513;-77
2022/07/16 03:20:00;;;;;;;0.50;0.50;;;8.70;99.90;;;;;;4973165;28;20446;-78
2022/07/16 03:22:29;;;;;;;0.70;0.70;;;8.70;99.90;;;;;;4989974;28;20438;-78
2022/07/16 03:24:56;;;;;;;0.70;0.70;;;8.60;99.90;;;;;;4989706;28;20434;-78
2022/07/16 03:27:23;;;;;;;0.80;0.80;;;8.70;99.90;;;;;;4990632;28;20450;-78
2022/07/16 03:29:50;;;;;;;0.60;0.60;;;8.60;99.90;;;;;;4970005;28;20547;-78
2022/07/16 03:32:16;;;;;;;0.65;0.65;;;8.60;99.90;;;;;;4992362;28;20785;-77
2022/07/16 03:34:43;;;;;;;0.60;0.60;;;8.50;99.90;;;;;;4989410;28;20438;-77
2022/07/16 03:37:10;;;;;;;0.90;0.90;;;8.60;99.90;;;;;;4986543;28;20433;-77
2022/07/16 03:39:37;;;;;;;0.80;0.80;;;8.60;99.90;;;;;;4989965;28;20434;-77
2022/07/16 03:42:04;;;;;;;0.65;0.65;;;8.60;99.90;;;;;;4996852;28;20486;-77
2022/07/16 03:44:30;;;;;;;0.80;0.80;;;8.50;99.90;;;;;;4981603;28;20436;-77
2022/07/16 03:46:57;;;;;;;0.90;0.90;;;8.60;99.90;;;;;;4973060;28;21115;-78
2022/07/16 03:49:24;;;;;;;0.80;0.80;;;8.60;99.90;;;;;;4969057;28;20447;-77
2022/07/16 03:51:50;;;;;;;0.98;0.98;;;8.60;99.90;;;;;;4977665;28;20815;-78
2022/07/16 03:54:17;;;;;;;0.90;0.90;;;8.60;99.90;;;;;;4981317;28;21001;-78
2022/07/16 03:56:44;;;;;;;0.70;0.70;;;8.60;99.90;;;;;;4989700;28;20559;-78
2022/07/16 03:59:11;;;;;;;0.70;0.70;;;8.60;99.90;;;;;;4972980;28;20644;-77
2022/07/16 04:01:38;;;;;;;1.35;0.90;;;8.60;99.90;;;;;;4989923;28;20434;-78
2022/07/16 04:04:05;;;;;;;0.50;0.50;;;8.70;99.90;;;;;;4994120;28;21050;-78
2022/07/16 04:06:32;;;;;;;0.68;0.68;;;8.70;99.90;;;;;;4984622;28;20784;-78
2022/07/16 04:08:59;;;;;;;0.80;0.80;;;8.70;99.90;;;;;;4972415;28;20438;-78
2022/07/16 04:11:32;;;;;;;0.80;0.80;;;8.70;99.90;;;;;;4986598;28;20509;-77
2022/07/16 04:13:59;;;;;;;0.73;0.73;;;8.80;99.90;;;;;;4990799;28;20485;-78
2022/07/16 04:16:26;;;;;;;1.10;0.95;;;8.90;99.90;;;;;;4980098;28;20434;-78
2022/07/16 04:18:56;;;;;;;0.82;0.82;;;9.00;99.90;;;;;;4990924;28;20434;-78
2022/07/16 04:21:22;;;;;;;0.70;0.70;;;9.10;99.90;;;;;;4969510;28;20960;-77
2022/07/16 04:23:50;;;;;;;0.88;0.88;;;9.30;99.90;;;;;;4995022;28;20525;-78
2022/07/16 04:26:19;;;;;;;0.80;0.80;;;9.50;99.90;;;;;;4980910;28;20525;-77
2022/07/16 04:28:46;;;;;;;0.93;0.93;;;9.60;99.90;;;;;;4969892;28;20435;-77
2022/07/16 04:31:15;;;;;;;0.80;0.80;;;9.80;99.90;;;;;;4988101;28;20453;-78
2022/07/16 04:33:41;;;;;;;1.05;0.90;;;10.00;99.90;;;;;;4992315;28;20446;-78
2022/07/16 04:36:08;;;;;;;0.90;0.90;;;10.10;99.90;;;;;;4975464;28;20844;-78
2022/07/16 04:38:35;;;;;;;0.90;0.90;;;10.30;99.90;;;;;;4988118;28;20532;-78
2022/07/16 04:41:04;;;;;;;0.80;0.80;;;10.50;99.90;;;;;;4988951;28;20855;-78
2022/07/16 04:43:31;;;;;;;0.98;0.90;;;10.70;99.90;;;;;;4987688;28;20431;-77
2022/07/16 04:45:58;;;;;;;0.77;0.77;;;10.80;99.90;;;;;;4989313;28;20545;-78
2022/07/16 04:48:25;;;;;;;0.90;0.90;;;11.10;99.90;;;;;;4965656;28;21023;-78
2022/07/16 04:50:51;;;;;;;1.00;1.00;;;11.90;99.90;;;;;;4969266;28;20440;-78
2022/07/16 04:53:18;;;;;;;0.70;0.70;;;12.80;99.90;;;;;;4969393;28;20452;-78
2022/07/16 04:55:45;;;;;;;0.77;0.77;;;13.80;99.90;;;;;;4989772;28;20533;-78
2022/07/16 04:58:12;;;;;;;0.80;0.80;;;14.70;99.90;;;;;;4977519;28;20440;-79
2022/07/16 05:00:38;;;;;;;1.65;0.95;;;15.50;99.90;;;;;;4987679;28;20812;-78
2022/07/16 05:03:06;;;;;;;0.70;0.70;;;16.40;99.90;;;;;;4986343;28;20438;-78
2022/07/16 05:05:36;;;;;;;1.00;0.68;;;17.20;99.90;;;;;;4987106;28;20443;-78
2022/07/16 05:08:07;;;;;;;0.77;0.77;;;17.80;99.90;;;;;;4985251;28;20444;-78
2022/07/16 05:10:34;;;;;;;0.50;0.50;;;18.20;99.90;;;;;;4970081;28;20851;-78
2022/07/16 05:13:02;;;;;;;1.00;0.70;;;18.40;99.90;;;;;;4983520;28;20797;-78
2022/07/16 05:15:29;;;;;;;0.70;0.70;;;18.90;99.90;;;;;;4983367;28;20493;-78
2022/07/16 05:17:56;;;;;;;0.50;0.50;;;19.30;99.90;;;;;;4981239;28;20512;-78
2022/07/16 05:20:23;;;;;;;0.60;0.60;;;19.90;99.90;;;;;;4969699;28;20528;-79
2022/07/16 05:22:50;;;;;;;0.60;0.60;;;20.50;99.90;;;;;;4985267;28;20832;-79
2022/07/16 05:25:19;;;;;;;0.57;0.57;;;21.10;99.90;;;;;;4974602;28;21513;-79
2022/07/16 05:27:46;;;;;;;0.50;0.50;;;21.60;99.90;;;;;;4966909;28;20438;-79
2022/07/16 05:30:13;;;;;;;0.40;0.40;;;22.10;99.90;;;;;;4991016;28;20541;-79
2022/07/16 05:32:44;;;;;;;0.60;0.60;;;22.50;99.90;;;;;;4974329;28;20456;-79
2022/07/16 05:35:12;;;;;;;0.50;0.50;;;22.60;99.90;;;;;;4987148;28;20444;-79
2022/07/16 05:37:40;;;;;;;0.55;0.55;;;22.00;99.60;;;;;;4987472;28;20469;-79
2022/07/16 05:40:08;;;;;;;0.60;0.60;;;22.00;99.90;;;;;;4988569;28;20501;-79
2022/07/16 05:42:37;;;;;;;0.57;0.57;;;22.30;99.70;;;;;;4984203;28;20564;-79
2022/07/16 05:45:08;;;;;;;0.50;0.50;;;22.70;99.60;;;;;;4971536;28;20504;-79
2022/07/16 05:47:36;;;;;;;0.40;0.40;;;23.10;99.10;;;;;;4987317;28;20446;-79
2022/07/16 05:50:07;;;;;;;0.33;0.33;;;23.50;98.50;;;;;;4985662;28;20497;-79
2022/07/16 05:52:34;;;;;;;0.50;0.50;;;23.90;98.10;;;;;;4984510;28;20792;-80
2022/07/16 05:55:00;;;;;;;0.50;0.50;;;24.00;96.90;;;;;;4979584;28;20612;-79
2022/07/16 05:57:27;;;;;;;0.60;0.60;;;23.20;97.00;;;;;;4969249;28;20441;-79
2022/07/16 05:59:54;;;;;;;0.40;0.40;;;23.40;97.90;;;;;;4986149;28;20449;-79
2022/07/16 06:02:21;;;;;;;0.40;0.40;;;23.70;97.30;;;;;;4990370;28;20450;-79
2022/07/16 06:04:48;;;;;;;0.40;0.40;;;23.70;96.90;;;;;;4990287;28;20525;-80
2022/07/16 06:07:15;;;;;;;0.50;0.50;;;23.60;96.90;;;;;;4988469;28;20445;-79
2022/07/16 06:09:42;;;;;;;0.32;0.32;;;23.90;96.70;;;;;;4993117;28;20800;-79
2022/07/16 06:12:12;;;;;;;0.47;0.47;;;23.60;96.10;;;;;;4987826;28;20517;-80
2022/07/16 06:14:41;;;;;;;0.40;0.40;;;23.90;96.00;;;;;;4970777;28;20446;-80
2022/07/16 06:17:08;;;;;;;0.73;0.50;;;24.20;95.70;;;;;;4987767;28;20565;-79
2022/07/16 06:19:34;;;;;;;0.50;0.50;;;23.60;95.90;;;;;;4987353;28;20517;-78
2022/07/16 06:22:01;;;;;;;0.40;0.40;;;23.60;95.90;;;;;;4983247;28;20435;-79
2022/07/16 06:24:28;;;;;;;1.10;0.50;;;24.20;96.00;;;;;;4986799;28;20434;-79
2022/07/16 06:26:54;;;;;;;0.50;0.50;;;24.30;95.30;;;;;;4986257;28;20456;-79
2022/07/16 06:29:21;;;;;;;0.60;0.60;;;23.40;95.90;;;;;;4984562;28;20434;-79
2022/07/16 06:31:51;;;;;;;0.55;0.40;;;23.10;96.10;;;;;;4985017;28;20441;-79
2022/07/16 06:34:18;;;;;;;0.38;0.38;;;22.60;96.40;;;;;;4992687;28;20438;-79
2022/07/16 06:36:45;;;;;;;0.30;0.30;;;22.40;96.60;;;;;;4985014;28;20947;-79
2022/07/16 06:39:14;;;;;;;0.30;0.30;;;23.20;97.40;;;;;;4994264;28;20806;-80
2022/07/16 06:41:41;;;;;;;0.40;0.40;;;23.50;96.10;;;;;;4990299;28;20437;-79
2022/07/16 06:44:09;;;;;;;0.30;0.30;;;24.10;95.80;;;;;;4976732;28;20434;-77
2022/07/16 06:46:36;;;;;;;0.45;0.45;;;24.30;95.40;;;;;;4968319;28;20434;-80
2022/07/16 06:49:03;;;;;;;0.30;0.30;;;24.70;95.70;;;;;;4961039;28;20558;-80
2022/07/16 06:51:31;;;;;;;0.30;0.30;;;24.90;94.50;;;;;;4988070;28;20444;-79
2022/07/16 06:53:58;;;;;;;0.30;0.30;;;25.30;94.70;;;;;;4991810;28;20449;-79
2022/07/16 06:56:25;;;;;;;0.30;0.30;;;25.80;94.60;;;;;;4988319;28;21121;-79
2022/07/16 06:58:52;;;;;;;0.30;0.30;;;26.00;93.70;;;;;;4991149;28;20429;-79
2022/07/16 07:01:18;;;;;;;0.20;0.20;;;25.80;93.70;;;;;;4989332;28;20456;-79
2022/07/16 07:03:45;;;;;;;0.30;0.30;;;26.10;94.30;;;;;;4988813;28;20434;-79
2022/07/16 07:06:13;;;;;;;0.20;0.20;;;26.10;92.80;;;;;;4985698;28;20730;-79
2022/07/16 07:08:40;;;;;;;0.40;0.40;;;25.90;92.90;;;;;;4989531;28;20434;-79
2022/07/16 07:11:14;;;;;;;0.35;0.35;;;25.60;93.90;;;;;;4990093;28;20434;-79
2022/07/16 07:13:41;;;;;;;0.30;0.30;;;25.90;93.30;;;;;;4973868;28;20446;-79
2022/07/16 07:16:08;;;;;;;0.40;0.40;;;26.00;92.50;;;;;;4990918;28;20472;-79
2022/07/16 07:18:34;;;;;;;0.30;0.30;;;26.30;92.60;;;;;;4989147;28;20444;-79
2022/07/16 07:21:02;;;;;;;0.30;0.30;;;26.40;92.40;;;;;;4971803;28;20492;-79
2022/07/16 07:23:29;;;;;;;0.40;0.40;;;25.80;92.20;;;;;;4990362;28;20446;-78
2022/07/16 07:25:56;;;;;;;0.30;0.30;;;25.60;93.00;;;;;;4988249;28;20469;-79
2022/07/16 07:28:23;;;;;;;0.30;0.30;;;25.70;92.30;;;;;;4988441;28;20442;-79
2022/07/16 07:30:50;;;;;;;0.30;0.30;;;25.60;92.70;;;;;;4995527;28;20924;-79
2022/07/16 07:33:16;;;;;;;0.30;0.30;;;25.50;92.30;;;;;;4988804;28;20438;-79
2022/07/16 07:35:43;;;;;;;0.80;0.40;;;25.40;93.20;;;;;;4971904;28;20438;-80
2022/07/16 07:38:10;;;;;;;0.30;0.30;;;25.90;93.90;;;;;;4991041;28;20924;-80
2022/07/16 07:40:48;;;;;;;0.20;0.20;;;26.30;92.40;;;;;;4976959;28;20448;-78
2022/07/16 07:43:16;;;;;;;0.20;0.20;;;27.00;92.60;;;;;;4988459;28;20438;-80
2022/07/16 07:45:43;;;;;;;0.30;0.30;;;27.70;92.30;;;;;;4967108;28;20434;-79
2022/07/16 07:48:10;;;;;;;0.40;0.40;;;27.90;91.60;;;;;;4987264;28;20719;-79
2022/07/16 07:50:37;;;;;;;0.32;0.32;;;28.10;91.10;;;;;;4990207;28;20450;-78
2022/07/16 07:53:04;;;;;;;0.30;0.30;;;28.50;90.90;;;;;;4995861;28;20916;-78
2022/07/16 07:55:31;;;;;;;0.22;0.22;;;28.90;90.10;;;;;;4966289;28;20528;-77
2022/07/16 07:57:58;;;;;;;0.38;0.38;;;29.00;90.20;;;;;;4975033;28;20473;-78
2022/07/16 08:00:28;;;;;;;0.30;0.30;;;29.00;89.70;;;;;;4994812;28;20525;-78
2022/07/16 08:02:55;;;;;;;0.30;0.30;;;28.80;88.90;;;;;;4989610;28;20525;-78
2022/07/16 08:05:23;;;;;;;0.32;0.32;;;28.40;90.10;;;;;;4972515;28;20446;-78
2022/07/16 08:07:49;;;;;;;0.30;0.30;;;28.30;91.00;;;;;;4990940;28;20434;-79
2022/07/16 08:10:17;;;;;;;0.20;0.20;;;28.60;90.10;;;;;;4990984;28;20434;-79
2022/07/16 08:12:44;;;;;;;0.20;0.20;;;28.30;89.00;;;;;;4990052;28;20493;-79
2022/07/16 08:15:11;;;;;;;0.60;0.30;;;28.60;90.00;;;;;;4991224;28;20447;-79
2022/07/16 08:17:39;;;;;;;0.30;0.30;;;28.80;90.20;;;;;;4996173;28;20426;-79
2022/07/16 08:20:07;;;;;;;0.30;0.30;;;28.90;89.50;;;;;;4965725;28;20442;-79
2022/07/16 08:22:34;;;;;;;0.38;0.38;;;28.80;89.10;;;;;;4989669;28;20446;-79
2022/07/16 08:27:48;;;;;;;0.30;0.30;;;29.20;87.10;;;;;;4990866;28;20828;-79
2022/07/16 08:30:15;;;;;;;0.30;0.30;;;28.50;86.80;;;;;;4989436;28;21157;-80
2022/07/16 08:32:49;;;;;;;0.30;0.30;;;28.00;87.70;;;;;;4988089;28;20941;-79
2022/07/16 08:35:17;;;;;;;0.40;0.40;;;27.80;88.40;;;;;;4971829;28;20920;-79
2022/07/16 08:37:47;;;;;;;0.30;0.30;;;27.90;90.00;;;;;;4972617;28;20931;-79
2022/07/16 08:40:17;;;;;;;0.25;0.25;;;27.80;87.80;;;;;;4979423;28;20436;-79
2022/07/16 08:42:44;;;;;;;0.30;0.30;;;27.50;89.30;;;;;;4972043;28;20511;-79
2022/07/16 08:45:16;;;;;;;0.60;0.30;;;27.80;89.00;;;;;;4987039;28;20438;-79
2022/07/16 08:47:42;;;;;;;0.30;0.30;;;28.40;89.60;;;;;;4989671;28;20437;-79
2022/07/16 08:50:12;;;;;;;0.30;0.30;;;28.70;86.40;;;;;;4984900;28;20438;-79
2022/07/16 08:52:47;;;;;;;0.40;0.40;;;28.00;86.70;;;;;;4988085;28;20504;-79
2022/07/16 08:55:14;;;;;;;0.30;0.30;;;27.30;88.90;;;;;;4977651;28;20441;-79
2022/07/16 08:57:41;;;;;;;0.40;0.40;;;27.20;87.60;;;;;;4989529;28;20436;-79
2022/07/16 09:00:12;;;;;;;0.30;0.30;;;27.00;90.00;;;;;;4986155;28;20435;-80
2022/07/16 09:02:40;;;;;;;0.32;0.32;;;27.60;91.00;;;;;;4989632;28;20426;-79
2022/07/16 09:05:07;;;;;;;0.30;0.30;;;28.10;87.90;;;;;;4985292;28;20515;-79
2022/07/16 09:07:35;;;;;;;0.20;0.20;;;28.30;87.10;;;;;;4995785;28;20496;-80
2022/07/16 09:10:06;;;;;;;0.40;0.40;;;28.70;87.30;;;;;;4983073;28;20545;-79
2022/07/16 09:12:37;;;;;;;0.35;0.35;;;28.80;86.10;;;;;;4988201;28;20448;-79
2022/07/16 09:15:33;;;;;;;0.30;0.30;;;28.10;86.00;;;;;;4978266;28;20438;-79
2022/07/16 09:18:12;;;;;;;0.30;0.30;;;27.50;87.10;;;;;;4973134;28;20436;-79
2022/07/16 09:20:46;;;;;;;0.30;0.30;;;26.90;87.20;;;;;;4985682;28;20448;-79
2022/07/16 09:23:48;;;;;;;0.40;0.40;;;27.00;88.30;;;;;;4989154;28;21332;-79
2022/07/16 09:26:16;;;;;;;0.30;0.30;;;28.30;87.80;;;;;;4868524;29;20450;-79
2022/07/16 09:28:51;;;;;;;0.30;0.30;;;29.10;86.80;;;;;;4886053;29;20446;-77
2022/07/16 09:31:32;;;;;;;0.38;0.38;;;29.40;85.20;;;;;;4889248;29;20555;-77
2022/07/16 09:34:08;;;;;;;1.23;0.40;;;29.30;84.90;;;;;;4888955;29;20441;-77
2022/07/16 09:36:39;;;;;;;0.30;0.30;;;29.80;83.90;;;;;;4894252;29;20439;-78
2022/07/16 09:39:08;;;;;;;0.40;0.40;;;29.40;84.60;;;;;;4891382;29;20806;-77
2022/07/16 09:41:46;;;;;;;0.20;0.20;;;28.90;85.60;;;;;;4900277;29;20867;-78
2022/07/16 09:44:15;;;;;;;0.25;0.25;;;28.70;85.40;;;;;;4891403;29;20505;-78
2022/07/16 09:47:06;;;;;;;0.25;0.25;;;28.80;85.80;;;;;;4888631;29;20442;-78
2022/07/16 09:49:37;;;;;;;0.40;0.40;;;29.20;87.60;;;;;;4888860;29;20452;-78
2022/07/16 09:52:06;;;;;;;0.30;0.30;;;29.50;84.80;;;;;;4886510;29;20861;-78
2022/07/16 09:54:55;;;;;;;0.30;0.30;;;29.70;84.80;;;;;;4893833;29;20454;-78
2022/07/16 09:57:44;;;;;;;0.50;0.50;;;30.50;85.80;;;;;;4885778;29;20957;-78
2022/07/16 10:00:11;;;;;;;0.30;0.30;;;30.50;82.40;;;;;;4923797;28;20449;-78
2022/07/16 10:02:38;;;;;;;0.40;0.40;;;30.50;83.90;;;;;;4987298;28;20438;-78
2022/07/16 10:05:05;;;;;;;0.30;0.30;;;30.40;82.00;;;;;;4982247;28;20450;-78
2022/07/16 10:07:34;;;;;;;0.30;0.30;;;29.50;83.50;;;;;;4986432;28;20942;-78
2022/07/16 10:10:02;;;;;;;0.40;0.40;;;28.50;84.70;;;;;;4980253;28;20446;-78
2022/07/16 10:12:30;;;;;;;0.30;0.30;;;28.00;86.90;;;;;;4979452;28;20529;-78
2022/07/16 10:14:58;;;;;;;0.20;0.20;;;28.30;85.30;;;;;;4983008;28;20436;-77
2022/07/16 10:17:38;;;;;;;0.40;0.40;;;28.40;85.10;;;;;;4983889;28;20818;-78
2022/07/16 10:20:09;;;;;;;0.20;0.20;;;28.70;86.30;;;;;;4990665;28;20866;-78
2022/07/16 10:22:39;;;;;;;0.70;0.40;;;28.70;83.80;;;;;;4985381;28;20482;-78
2022/07/16 10:25:19;;;;;;;0.30;0.30;;;28.30;84.90;;;;;;4971468;28;20438;-78
2022/07/16 10:27:46;;;;;;;0.30;0.30;;;27.60;85.30;;;;;;4981172;28;20529;-78
2022/07/16 10:30:23;;;;;;;0.20;0.20;;;27.00;86.60;;;;;;4991024;28;20430;-78
2022/07/16 10:33:10;;;;;;;0.30;0.30;;;26.50;88.60;;;;;;4969943;28;20440;-78
2022/07/16 10:35:44;;;;;;;0.30;0.30;;;26.90;87.70;;;;;;4986660;28;20440;-79
2022/07/16 10:38:59;;;;;;;0.40;0.30;;;27.70;86.80;;;;;;4983872;28;20881;-78
2022/07/16 10:41:27;;;;;;;0.40;0.40;;;28.50;86.40;;;;;;4926008;29;20450;-78
2022/07/16 10:44:09;;;;;;;0.40;0.40;;;28.00;86.70;;;;;;4917341;29;20856;-78
2022/07/16 10:46:50;;;;;;;0.30;0.30;;;27.80;86.50;;;;;;4922849;29;20511;-79
2022/07/16 10:49:20;;;;;;;0.35;0.35;;;28.30;85.20;;;;;;4928499;29;20447;-79
2022/07/16 10:51:55;;;;;;;0.40;0.40;;;28.70;84.30;;;;;;4926278;29;20887;-79
2022/07/16 10:54:27;;;;;;;0.30;0.30;;;29.30;82.80;;;;;;4939074;29;20495;-78
2022/07/16 10:56:56;;;;;;;0.40;0.40;;;29.00;83.10;;;;;;4927956;29;20442;-78
2022/07/16 10:59:34;;;;;;;0.30;0.30;;;28.40;83.80;;;;;;4940123;28;21047;-78
2022/07/16 11:02:04;;;;;;;0.20;0.20;;;28.20;85.10;;;;;;4924553;29;20447;-78
2022/07/16 11:04:45;;;;;;;0.20;0.20;;;27.90;84.30;;;;;;4912956;29;20953;-78
2022/07/16 11:07:17;;;;;;;0.20;0.20;;;27.40;85.00;;;;;;4933870;29;20869;-78
2022/07/16 11:09:54;;;;;;;0.65;0.40;;;27.40;86.80;;;;;;4925697;29;20447;-78
2022/07/16 11:12:27;;;;;;;0.40;0.40;;;28.30;84.80;;;;;;4934606;29;20510;-78
2022/07/16 11:14:56;;;;;;;0.30;0.30;;;28.20;83.90;;;;;;4935190;29;20434;-78
2022/07/16 11:17:25;;;;;;;0.37;0.37;;;27.80;84.40;;;;;;4924887;28;20924;-78
2022/07/16 11:19:55;;;;;;;0.28;0.28;;;27.10;84.30;;;;;;4981974;28;20559;-78
2022/07/16 11:22:26;;;;;;;0.32;0.30;;;26.60;85.60;;;;;;4980460;28;21101;-78
2022/07/16 11:24:58;;;;;;;0.30;0.30;;;27.10;86.20;;;;;;4982590;28;20440;-78
2022/07/16 11:27:29;;;;;;;0.30;0.30;;;27.80;85.60;;;;;;4983487;28;20473;-78
2022/07/16 11:29:57;;;;;;;0.32;0.32;;;27.60;85.80;;;;;;4987837;28;20985;-78
2022/07/16 11:32:25;;;;;;;0.40;0.40;;;27.10;86.10;;;;;;4985994;28;20469;-79
2022/07/16 11:34:52;;;;;;;0.38;0.38;;;27.30;87.40;;;;;;4983479;28;20444;-79
2022/07/16 11:37:20;;;;;;;0.30;0.30;;;27.90;86.20;;;;;;4982974;28;20942;-78
2022/07/16 11:39:48;;;;;;;0.22;0.22;;;28.40;85.50;;;;;;4984109;28;20437;-78
2022/07/16 11:42:20;;;;;;;0.40;0.40;;;28.40;85.40;;;;;;4993491;28;20434;-78
2022/07/16 11:44:47;;;;;;;0.40;0.40;;;27.70;86.10;;;;;;4992852;28;20452;-78
2022/07/16 11:47:13;;;;;;;0.30;0.30;;;27.60;86.70;;;;;;4993730;28;20430;-78
2022/07/16 11:49:43;;;;;;;0.32;0.32;;;28.20;85.90;;;;;;4990925;28;20430;-78
2022/07/16 11:52:30;;;;;;;0.50;0.50;;;29.10;86.40;;;;;;4980086;28;20430;-78
2022/07/16 11:54:57;;;;;;;0.30;0.30;;;29.10;84.80;;;;;;4989866;28;20484;-78
2022/07/16 11:57:24;;;;;;;0.40;0.40;;;28.60;85.20;;;;;;4989648;28;20521;-78
2022/07/16 11:59:53;;;;;;;0.30;0.30;;;27.70;85.70;;;;;;4992392;28;20867;-77
2022/07/16 12:02:23;;;;;;;0.40;0.40;;;27.40;87.10;;;;;;4993030;28;20430;-78
2022/07/16 12:04:55;;;;;;;0.32;0.32;;;27.70;87.30;;;;;;4988088;28;20520;-78
2022/07/16 12:07:25;;;;;;;0.30;0.30;;;28.40;86.30;;;;;;4987117;28;20554;-77
2022/07/16 12:09:58;;;;;;;0.40;0.40;;;28.60;85.10;;;;;;4989766;28;20442;-77
2022/07/16 12:12:30;;;;;;;0.40;0.40;;;28.10;84.50;;;;;;4985259;28;20438;-78
2022/07/16 12:15:01;;;;;;;0.40;0.40;;;27.60;85.80;;;;;;4979386;28;20466;-78
2022/07/16 12:17:44;;;;;;;0.30;0.30;;;27.80;85.60;;;;;;4990516;28;20434;-78
2022/07/16 12:20:21;;;;;;;0.30;0.30;;;27.80;85.80;;;;;;4985037;28;20438;-78
2022/07/16 12:23:04;;;;;;;0.30;0.30;;;28.10;85.80;;;;;;4985760;28;20920;-78
2022/07/16 12:25:59;;;;;;;0.40;0.40;;;28.00;85.50;;;;;;4985118;28;20439;-78
2022/07/16 12:28:26;;;;;;;0.32;0.32;;;27.30;85.00;;;;;;4981667;28;21759;-78
2022/07/16 12:30:56;;;;;;;1.20;0.32;;;26.90;87.00;;;;;;4987885;28;20441;-78
2022/07/16 12:33:29;;;;;;;0.40;0.40;;;26.80;89.20;;;;;;4982695;28;20468;-78
2022/07/16 12:36:04;;;;;;;1.20;0.50;;;26.40;90.00;;;;;;4978043;28;20449;-78
2022/07/16 12:38:54;;;;;;;0.40;0.40;;;26.40;90.80;;;;;;4979897;28;20907;-78
2022/07/16 12:41:36;;;;;;;0.60;0.47;;;26.50;90.30;;;;;;4961748;28;20703;-77
2022/07/16 12:44:25;;;;;;;0.32;0.32;;;26.80;89.60;;;;;;4982298;28;21405;-78
2022/07/16 12:46:52;;;;;;;0.40;0.40;;;26.60;90.20;;;;;;4986610;28;20438;-77
2022/07/16 12:49:25;;;;;;;0.40;0.40;;;26.40;89.40;;;;;;4988140;28;20519;-77
2022/07/16 12:52:00;;;;;;;0.40;0.40;;;25.80;90.00;;;;;;4988421;28;20545;-78
2022/07/16 12:58:47;;;;;;;0.40;0.40;;;25.80;90.30;;;;;;4987367;28;20444;-78
2022/07/16 13:00:01;;;;;;;0.50;0.50;;;27.40;90.10;;;;;;4982259;28;20426;-78
2022/07/16 13:02:28;;;;;;;0.40;0.40;;;27.80;88.70;;;;;;4989172;28;20438;-78
2022/07/16 13:04:55;;;;;;;0.30;0.30;;;28.10;88.20;;;;;;4971015;28;20446;-78
2022/07/16 13:07:22;;;;;;;0.40;0.40;;;28.60;87.00;;;;;;4987746;28;20452;-78
2022/07/16 13:09:51;;;;;;;0.50;0.50;;;28.60;87.00;;;;;;4984812;28;20448;-78